Terminal Aerodrome Forecast
Issued by NWS

Current Version | Previous Version | Text Only | Print | Product List | Glossary Off
Versions: 1 2 3 4 5 6 7 8 9 10 11 12 13 14 15 16 17 18 19 20 21 22 23 24 25 26

000
FTUS41 KRLX 231723
TAFCKB
TAF
KCKB 231723Z 2318/2418 05010G16KT 4SM -RA OVC030
     FM240300 36007KT 4SM -RA OVC016
     FM240800 34006KT 4SM -RASN OVC006=

USA.gov is the U.S. government's official web portal to all federal, state and local government web resources and services.